createdAt,value
2023-04-02T00:00:30.018Z,51
2023-04-02T00:05:36.123Z,51
2023-04-02T00:10:42.254Z,51
2023-04-02T00:15:48.190Z,51
2023-04-02T00:20:54.395Z,51
2023-04-02T00:26:00.534Z,51
2023-04-02T00:31:05.613Z,51
2023-04-02T00:36:11.556Z,51
2023-04-02T00:41:17.779Z,51
2023-04-02T00:46:23.731Z,51
2023-04-02T00:51:29.859Z,51
2023-04-02T00:56:35.953Z,51
2023-04-02T01:01:42.001Z,51
2023-04-02T01:06:48.233Z,51
2023-04-02T01:11:54.250Z,51
2023-04-02T01:17:00.408Z,50.5
2023-04-02T01:22:06.357Z,50.5
2023-04-02T01:27:12.493Z,50.5
2023-04-02T01:32:18.670Z,50.5
2023-04-02T01:37:24.777Z,50.5
2023-04-02T01:42:30.773Z,50.5
2023-04-02T01:47:36.952Z,50.5
2023-04-02T01:52:43.065Z,50.5
2023-04-02T01:57:48.115Z,50.5
2023-04-02T02:02:54.171Z,50.5
2023-04-02T02:08:00.160Z,50.5
2023-04-02T02:13:06.274Z,50.5
2023-04-02T02:18:12.477Z,50.5
2023-04-02T02:23:18.433Z,50.5
2023-04-02T02:28:24.666Z,50.5
2023-04-02T02:33:30.769Z,50.5
2023-04-02T02:38:36.693Z,50.5
2023-04-02T02:43:42.792Z,50
2023-04-02T02:48:48.960Z,50
2023-04-02T02:53:55.075Z,50
2023-04-02T02:59:01.150Z,50
2023-04-02T03:04:07.139Z,50
2023-04-02T03:09:13.349Z,50
2023-04-02T03:14:19.473Z,50
2023-04-02T03:19:25.626Z,50
2023-04-02T03:24:30.541Z,50
2023-04-02T03:29:36.624Z,50
2023-04-02T03:34:42.897Z,50
2023-04-02T03:39:48.795Z,50
2023-04-02T03:44:55.010Z,50
2023-04-02T03:50:01.086Z,50
2023-04-02T03:55:07.072Z,50
2023-04-02T04:00:13.190Z,50
2023-04-02T04:05:19.327Z,50
2023-04-02T04:10:25.465Z,50
2023-04-02T04:15:31.416Z,50
2023-04-02T04:20:37.558Z,49.5
2023-04-02T04:25:43.597Z,49.5
2023-04-02T04:30:49.691Z,50
2023-04-02T04:35:54.804Z,50
2023-04-02T04:41:00.867Z,49.5
2023-04-02T04:46:06.998Z,49.5
2023-04-02T04:51:13.055Z,49.5
2023-04-02T04:56:19.157Z,49.5
2023-04-02T05:01:25.230Z,49.5
2023-04-02T05:06:31.325Z,49.5
2023-04-02T05:11:37.491Z,49.5
2023-04-02T05:16:43.490Z,49.5
2023-04-02T05:21:49.594Z,49.5
2023-04-02T05:26:55.695Z,49.5
2023-04-02T05:32:01.768Z,49.5
2023-04-02T05:37:07.905Z,49.5
2023-04-02T05:42:13.941Z,49.5
2023-04-02T05:47:20.070Z,49.5
2023-04-02T05:52:26.148Z,49.5
2023-04-02T05:57:32.204Z,49.5
2023-04-02T06:02:38.330Z,49.5
2023-04-02T06:07:44.404Z,49.5
2023-04-02T06:12:50.477Z,49.5
2023-04-02T06:17:56.570Z,49
2023-04-02T06:23:02.662Z,49
2023-04-02T06:28:08.743Z,49
2023-04-02T06:33:14.852Z,49
2023-04-02T06:38:20.939Z,49
2023-04-02T06:43:27.009Z,49
2023-04-02T06:48:33.128Z,49
2023-04-02T06:53:39.199Z,49
2023-04-02T06:58:45.277Z,49
2023-04-02T07:03:51.371Z,49
2023-04-02T07:08:57.452Z,49
2023-04-02T07:14:03.544Z,49
2023-04-02T07:19:09.626Z,49
2023-04-02T07:24:15.710Z,49
2023-04-02T07:29:21.830Z,48.5
2023-04-02T07:34:27.896Z,49
2023-04-02T07:39:34.042Z,48.5
2023-04-02T07:44:40.135Z,48.5
2023-04-02T07:49:46.293Z,48.5
2023-04-02T07:54:52.454Z,48.5
2023-04-02T07:59:58.583Z,48.5
2023-04-02T08:05:04.744Z,48.5
2023-04-02T08:10:10.904Z,48.5
2023-04-02T08:15:17.080Z,48.5
2023-04-02T08:20:23.192Z,48.5
2023-04-02T08:25:29.492Z,48.5
2023-04-02T08:30:35.496Z,48.5
2023-04-02T08:35:41.651Z,48.5
2023-04-02T08:40:47.800Z,48
2023-04-02T08:45:53.943Z,48
2023-04-02T08:50:59.287Z,48
2023-04-02T08:56:05.302Z,48
2023-04-02T09:01:10.365Z,48
2023-04-02T09:06:16.400Z,48
2023-04-02T09:11:22.487Z,48
2023-04-02T09:16:28.552Z,48
2023-04-02T09:21:34.660Z,48
2023-04-02T09:26:40.939Z,48
2023-04-02T09:31:46.837Z,48
2023-04-02T09:36:52.922Z,48
2023-04-02T09:41:59.024Z,48
2023-04-02T09:47:05.183Z,48
2023-04-02T09:52:11.196Z,48
2023-04-02T09:57:17.283Z,48
2023-04-02T10:02:23.382Z,48
2023-04-02T10:07:29.465Z,48
2023-04-02T10:12:35.611Z,48
2023-04-02T10:17:41.639Z,48
2023-04-02T10:22:47.803Z,48
2023-04-02T10:27:53.814Z,48
2023-04-02T10:32:58.962Z,48
2023-04-02T10:38:05.012Z,48
2023-04-02T10:43:11.105Z,48
2023-04-02T10:48:17.190Z,48
2023-04-02T10:53:23.288Z,48
2023-04-02T10:58:29.374Z,48
2023-04-02T11:03:35.461Z,48
2023-04-02T11:08:41.576Z,48
2023-04-02T11:13:47.633Z,48
2023-04-02T11:18:53.725Z,48
2023-04-02T11:23:59.818Z,48
2023-04-02T11:29:05.907Z,48.5
2023-04-02T11:34:11.029Z,48.5
2023-04-02T11:39:17.114Z,48.5
2023-04-02T11:44:23.202Z,48.5
2023-04-02T11:49:29.294Z,48.5
2023-04-02T11:54:35.382Z,48.5
2023-04-02T11:59:41.477Z,48.5
2023-04-02T12:04:47.552Z,48.5
2023-04-02T12:09:53.719Z,48.5
2023-04-02T12:14:59.741Z,48.5
2023-04-02T12:20:05.826Z,48.5
2023-04-02T12:25:11.916Z,48.5
2023-04-02T12:30:18.000Z,48.5
2023-04-02T12:35:24.161Z,48.5
2023-04-02T12:40:30.177Z,48.5
2023-04-02T12:45:36.262Z,48.5
2023-04-02T12:50:42.354Z,48.5
2023-04-02T12:55:47.466Z,48.5
2023-04-02T13:00:53.570Z,48.5
2023-04-02T13:05:59.703Z,48.5
2023-04-02T13:11:05.804Z,49
2023-04-02T13:16:11.823Z,49
2023-04-02T13:21:17.905Z,48.5
2023-04-02T13:26:24.050Z,48.5
2023-04-02T13:31:30.108Z,48.5
2023-04-02T13:36:36.190Z,48.5
2023-04-02T13:41:42.288Z,48.5
2023-04-02T13:46:48.350Z,48.5
2023-04-02T13:57:00.526Z,48.5
2023-04-02T14:02:06.627Z,48.5
2023-04-02T14:07:12.727Z,48.5
2023-04-02T14:12:18.815Z,48.5
2023-04-02T14:17:24.899Z,47.5
2023-04-02T14:22:30.976Z,47.5
2023-04-02T14:27:37.069Z,48
2023-04-02T14:32:42.297Z,47.5
2023-04-02T14:37:48.280Z,48
2023-04-02T14:42:54.397Z,48
2023-04-02T14:48:00.452Z,48
2023-04-02T14:53:06.574Z,47.5
2023-04-02T14:58:12.623Z,48
2023-04-02T15:03:18.719Z,48
2023-04-02T15:08:24.803Z,48
2023-04-02T15:13:30.898Z,48
2023-04-02T15:18:36.982Z,48
2023-04-02T15:23:43.064Z,48
2023-04-02T15:28:49.168Z,48.5
2023-04-02T15:33:55.246Z,48
2023-04-02T15:39:01.359Z,48
2023-04-02T15:44:07.437Z,48
2023-04-02T15:49:13.558Z,48.5
2023-04-02T15:54:19.620Z,48.5
2023-04-02T15:59:25.702Z,48.5
2023-04-02T16:04:31.783Z,48.5
2023-04-02T16:09:37.874Z,48.5
2023-04-02T16:14:43.973Z,48
2023-04-02T16:19:50.120Z,48.5
2023-04-02T16:24:56.178Z,48.5
2023-04-02T16:30:02.229Z,48.5
2023-04-02T16:35:08.316Z,48.5
2023-04-02T16:40:14.475Z,48.5
2023-04-02T16:45:20.619Z,48.5
2023-04-02T16:50:26.885Z,48.5
2023-04-02T16:55:32.919Z,48.5
2023-04-02T17:00:39.080Z,48.5
2023-04-02T17:05:45.231Z,48.5
2023-04-02T17:10:51.487Z,48.5
2023-04-02T17:15:57.531Z,48.5
2023-04-02T17:21:03.797Z,48.5
2023-04-02T17:26:09.821Z,48.5
2023-04-02T17:31:15.971Z,48.5
2023-04-02T17:36:22.114Z,48.5
2023-04-02T17:41:28.275Z,48.5
2023-04-02T17:46:34.548Z,48.5
2023-04-02T17:51:40.811Z,48.5
2023-04-02T17:56:47.073Z,48.5
2023-04-02T18:01:53.347Z,48.5
2023-04-02T18:06:59.597Z,48.5
2023-04-02T18:12:05.909Z,48.5
2023-04-02T18:17:12.178Z,48.5
2023-04-02T18:22:18.397Z,48.5
2023-04-02T18:27:24.656Z,48.5
2023-04-02T18:32:30.918Z,48.5
2023-04-02T18:37:37.182Z,48.5
2023-04-02T18:42:43.464Z,48.5
2023-04-02T18:47:49.739Z,48.5
2023-04-02T18:52:56.183Z,48.5
2023-04-02T18:58:02.875Z,48.5
2023-04-02T19:03:09.128Z,48.5
2023-04-02T19:08:15.729Z,48.5
2023-04-02T19:13:22.062Z,48.5
2023-04-02T19:18:28.535Z,48.5
2023-04-02T19:23:35.158Z,48.5
2023-04-02T19:28:41.537Z,48.5
2023-04-02T19:33:48.131Z,48.5
2023-04-02T19:38:54.587Z,48.5
2023-04-02T19:44:01.060Z,48.5
2023-04-02T19:49:07.521Z,48.5
2023-04-02T19:54:13.911Z,48.5
2023-04-02T19:59:21.025Z,48.5
2023-04-02T20:04:27.846Z,48
2023-04-02T20:09:33.816Z,48.5
2023-04-02T20:14:39.976Z,48
2023-04-02T20:19:46.065Z,48
2023-04-02T20:24:52.269Z,48
2023-04-02T20:29:57.445Z,48
2023-04-02T20:35:03.650Z,48
2023-04-02T20:40:09.696Z,48
2023-04-02T20:45:15.929Z,48
2023-04-02T20:50:22.046Z,48
2023-04-02T20:55:28.227Z,48
2023-04-02T21:00:34.345Z,48
2023-04-02T21:05:40.453Z,48
2023-04-02T21:10:46.557Z,48
2023-04-02T21:15:52.820Z,48
2023-04-02T21:20:59.052Z,48
2023-04-02T21:26:05.119Z,48
2023-04-02T21:31:11.179Z,48
2023-04-02T21:36:17.251Z,48
2023-04-02T21:41:23.555Z,48
2023-04-02T21:46:29.731Z,48
2023-04-02T21:51:35.863Z,48
2023-04-02T21:56:42.034Z,47.5
2023-04-02T22:01:48.002Z,47.5
2023-04-02T22:06:54.349Z,48
2023-04-02T22:12:00.473Z,48
2023-04-02T22:17:06.615Z,47.5
2023-04-02T22:22:12.773Z,47.5
2023-04-02T22:27:18.915Z,47.5
2023-04-02T22:32:25.028Z,47.5
2023-04-02T22:37:31.342Z,47.5
2023-04-02T22:42:37.608Z,47.5
2023-04-02T22:47:43.863Z,47.5
2023-04-02T22:52:50.138Z,47.5
2023-04-02T22:57:56.381Z,47.5
2023-04-02T23:03:02.482Z,47.5
2023-04-02T23:08:08.760Z,47.5
2023-04-02T23:13:15.190Z,47.5
2023-04-02T23:18:21.434Z,47.5
2023-04-02T23:23:27.739Z,47.5
2023-04-02T23:28:33.975Z,47.5
2023-04-02T23:33:40.220Z,47.5
2023-04-02T23:38:46.464Z,47.5
2023-04-02T23:43:52.986Z,47.5
2023-04-02T23:48:59.449Z,47.5
2023-04-02T23:54:05.910Z,47
2023-04-02T23:59:12.416Z,47
